createdAt,value
2022-10-10T00:00:17.261Z,99851.06
2022-10-10T00:02:44.821Z,99850.53
2022-10-10T00:05:12.390Z,99847.72
2022-10-10T00:07:40.542Z,99833.75
2022-10-10T00:10:08.117Z,99836.63
2022-10-10T00:12:35.640Z,99833.31
2022-10-10T00:15:03.228Z,99827.44
2022-10-10T00:17:30.767Z,99826.94
2022-10-10T00:19:58.608Z,99832.38
2022-10-10T00:22:26.624Z,99829.19
2022-10-10T00:24:54.195Z,99829.75
2022-10-10T00:27:21.755Z,99835.91
2022-10-10T00:29:49.355Z,99828.66
2022-10-10T00:32:17.479Z,99827.41
2022-10-10T00:34:45.045Z,99836.09
2022-10-10T00:37:12.638Z,99834.19
2022-10-10T00:39:40.186Z,99831.91
2022-10-10T00:42:07.743Z,99835.69
2022-10-10T00:44:37.582Z,99831.16
2022-10-10T00:47:05.142Z,99827.81
2022-10-10T00:49:33.138Z,99825.41
2022-10-10T00:52:00.752Z,99837.56
2022-10-10T00:54:28.338Z,99836.75
2022-10-10T00:56:56.441Z,99831.47
2022-10-10T00:59:24.000Z,99831.09
2022-10-10T01:01:51.535Z,99833.63
2022-10-10T01:04:19.123Z,99829.66
2022-10-10T01:06:46.720Z,99833.72
2022-10-10T01:09:14.920Z,99827.94
2022-10-10T01:11:42.488Z,99830.66
2022-10-10T01:14:10.080Z,99835.97
2022-10-10T01:16:37.612Z,99831.66
2022-10-10T01:19:05.265Z,99836.25
2022-10-10T01:21:33.384Z,99832.81
2022-10-10T01:24:00.929Z,99828.34
2022-10-10T01:26:28.471Z,99820.97
2022-10-10T01:28:56.459Z,99826.75
2022-10-10T01:31:24.326Z,99835.94
2022-10-10T01:33:52.299Z,99825.91
2022-10-10T01:36:19.875Z,99834.47
2022-10-10T01:38:50.734Z,99833.22
2022-10-10T01:41:18.291Z,99835.63
2022-10-10T01:43:45.894Z,99831.88
2022-10-10T01:46:13.978Z,99828.81
2022-10-10T01:48:41.518Z,99821.34
2022-10-10T01:51:09.520Z,99816.25
2022-10-10T01:53:37.049Z,99814.81
2022-10-10T01:56:04.614Z,99818.63
2022-10-10T01:58:32.853Z,99819.59
2022-10-10T02:01:00.459Z,99809.22
2022-10-10T02:03:28.022Z,99800.50
2022-10-10T02:05:55.581Z,99798.81
2022-10-10T02:08:23.079Z,99795.19
2022-10-10T02:10:50.813Z,99801.72
2022-10-10T02:13:18.902Z,99791.88
2022-10-10T02:15:46.419Z,99801.53
2022-10-10T02:18:13.970Z,99796.94
2022-10-10T02:20:41.564Z,99791.25
2022-10-10T02:23:09.435Z,99796.28
2022-10-10T02:25:36.949Z,99785.19
2022-10-10T02:28:04.553Z,99782.91
2022-10-10T02:30:32.160Z,99784.81
2022-10-10T02:32:59.727Z,99790.50
2022-10-10T02:35:27.868Z,99779.38
2022-10-10T02:37:55.403Z,99780.69
2022-10-10T02:40:22.935Z,99778.59
2022-10-10T02:42:51.184Z,99769.69
2022-10-10T02:45:18.913Z,99769.56
2022-10-10T02:47:46.787Z,99760.81
2022-10-10T02:50:14.365Z,99768.72
2022-10-10T02:52:41.960Z,99765.56
2022-10-10T02:55:09.893Z,99759.00
2022-10-10T02:57:37.505Z,99759.44
2022-10-10T03:00:05.358Z,99761.72
2022-10-10T03:02:32.880Z,99759.06
2022-10-10T03:05:00.691Z,99756.25
2022-10-10T03:07:28.226Z,99756.38
2022-10-10T03:09:55.751Z,99757.16
2022-10-10T03:12:23.502Z,99755.41
2022-10-10T03:14:51.036Z,99753.78
2022-10-10T03:17:19.068Z,99740.88
2022-10-10T03:19:46.636Z,99745.28
2022-10-10T03:22:14.165Z,99757.03
2022-10-10T03:24:42.291Z,99755.13
2022-10-10T03:27:09.842Z,99753.34
2022-10-10T03:29:37.330Z,99751.44
2022-10-10T03:32:07.953Z,99749.16
2022-10-10T03:34:38.366Z,99752.19
2022-10-10T03:37:06.673Z,99756.31
2022-10-10T03:39:34.574Z,99756.69
2022-10-10T03:42:02.145Z,99755.06
2022-10-10T03:44:29.676Z,99755.09
2022-10-10T03:46:57.266Z,99758.56
2022-10-10T03:49:25.152Z,99759.50
2022-10-10T03:51:53.713Z,99763.09
2022-10-10T03:54:21.270Z,99759.69
2022-10-10T03:56:48.855Z,99758.56
2022-10-10T03:59:16.391Z,99764.56
2022-10-10T04:01:46.225Z,99763.22
2022-10-10T04:04:13.795Z,99760.91
2022-10-10T04:06:41.505Z,99761.34
2022-10-10T04:09:09.073Z,99759.28
2022-10-10T04:11:38.706Z,99760.56
2022-10-10T04:14:06.613Z,99750.28
2022-10-10T04:16:34.124Z,99750.63
2022-10-10T04:19:01.719Z,99749.19
2022-10-10T04:21:29.253Z,99750.00
2022-10-10T04:23:57.204Z,99749.53
2022-10-10T04:26:25.295Z,99746.13
2022-10-10T04:28:52.862Z,99747.94
2022-10-10T04:31:20.439Z,99740.94
2022-10-10T04:33:47.984Z,99744.53
2022-10-10T04:36:15.496Z,99733.16
2022-10-10T04:38:44.177Z,99733.25
2022-10-10T04:41:11.775Z,99733.25
2022-10-10T04:43:39.310Z,99734.13
2022-10-10T04:46:07.175Z,99735.19
2022-10-10T04:48:34.733Z,99734.47
2022-10-10T04:51:02.912Z,99735.41
2022-10-10T04:53:30.454Z,99730.31
2022-10-10T04:55:58.019Z,99739.25
2022-10-10T04:58:25.607Z,99732.34
2022-10-10T05:00:53.165Z,99737.78
2022-10-10T05:03:21.330Z,99732.59
2022-10-10T05:05:48.864Z,99731.63
2022-10-10T05:08:16.395Z,99729.94
2022-10-10T05:10:43.973Z,99731.72
2022-10-10T05:13:11.478Z,99729.06
2022-10-10T05:15:39.587Z,99730.03
2022-10-10T05:18:07.132Z,99730.03
2022-10-10T05:20:34.648Z,99731.00
2022-10-10T05:23:02.167Z,99732.91
2022-10-10T05:25:30.106Z,99726.75
2022-10-10T05:27:58.263Z,99733.03
2022-10-10T05:30:26.144Z,99728.78
2022-10-10T05:32:53.913Z,99734.09
2022-10-10T05:35:21.615Z,99729.88
2022-10-10T05:37:49.169Z,99727.22
2022-10-10T05:40:17.310Z,99724.44
2022-10-10T05:42:44.837Z,99723.38
2022-10-10T05:45:12.429Z,99730.16
2022-10-10T05:47:40.029Z,99718.59
2022-10-10T05:50:07.598Z,99722.94
2022-10-10T05:52:36.883Z,99724.72
2022-10-10T05:55:04.519Z,99722.09
2022-10-10T05:57:32.113Z,99723.16
2022-10-10T05:59:59.670Z,99724.25
2022-10-10T06:02:27.289Z,99732.28
2022-10-10T06:04:55.522Z,99724.25
2022-10-10T06:07:23.088Z,99724.09
2022-10-10T06:09:50.778Z,99738.84
2022-10-10T06:12:18.335Z,99738.75
2022-10-10T06:14:46.309Z,99732.47
2022-10-10T06:17:14.481Z,99735.75
2022-10-10T06:19:42.080Z,99729.41
2022-10-10T06:22:09.663Z,99733.41
2022-10-10T06:24:37.277Z,99733.38
2022-10-10T06:27:04.805Z,99731.31
2022-10-10T06:29:33.053Z,99727.81
2022-10-10T06:32:00.682Z,99728.72
2022-10-10T06:34:28.266Z,99725.47
2022-10-10T06:36:55.884Z,99718.72
2022-10-10T06:39:23.539Z,99722.94
2022-10-10T06:41:51.768Z,99725.44
2022-10-10T06:44:19.402Z,99717.50
2022-10-10T06:46:47.080Z,99721.88
2022-10-10T06:49:14.725Z,99714.84
2022-10-10T06:51:42.405Z,99715.00
2022-10-10T06:54:10.462Z,99720.59
2022-10-10T06:56:38.057Z,99715.75
2022-10-10T06:59:06.100Z,99719.75
2022-10-10T07:01:33.812Z,99727.28
2022-10-10T07:04:01.492Z,99723.53
2022-10-10T07:06:34.528Z,99732.03
2022-10-10T07:09:02.596Z,99724.03
2022-10-10T07:11:30.345Z,99729.25
2022-10-10T07:13:58.043Z,99723.09
2022-10-10T07:16:26.246Z,99724.94
2022-10-10T07:18:54.099Z,99729.28
2022-10-10T07:21:22.117Z,99724.66
2022-10-10T07:23:49.800Z,99722.13
2022-10-10T07:26:21.103Z,99724.13
2022-10-10T07:28:48.794Z,99728.75
2022-10-10T07:31:17.994Z,99731.97
2022-10-10T07:33:49.891Z,99736.38
2022-10-10T07:36:18.544Z,99732.66
2022-10-10T07:38:46.230Z,99725.03
2022-10-10T07:41:14.085Z,99725.69
2022-10-10T07:43:43.289Z,99717.75
2022-10-10T07:46:12.276Z,99711.53
2022-10-10T07:48:40.248Z,99715.97
2022-10-10T07:51:07.918Z,99722.97
2022-10-10T07:53:35.641Z,99720.94
2022-10-10T07:56:03.791Z,99730.63
2022-10-10T07:58:31.568Z,99727.19
2022-10-10T08:00:59.325Z,99735.19
2022-10-10T08:03:27.029Z,99734.28
2022-10-10T08:05:54.829Z,99731.69
2022-10-10T08:08:22.955Z,99725.44
2022-10-10T08:10:50.651Z,99728.00
2022-10-10T08:13:18.494Z,99726.25
2022-10-10T08:15:46.223Z,99725.72
2022-10-10T08:18:14.033Z,99729.53
2022-10-10T08:20:42.031Z,99730.81
2022-10-10T08:23:09.782Z,99730.13
2022-10-10T08:25:37.961Z,99731.56
2022-10-10T08:28:05.868Z,99731.72
2022-10-10T08:30:33.682Z,99732.16
2022-10-10T08:33:02.262Z,99726.53
2022-10-10T08:35:30.106Z,99722.06
2022-10-10T08:37:57.949Z,99731.50
2022-10-10T08:40:29.019Z,99726.34
2022-10-10T08:42:57.113Z,99728.53
2022-10-10T08:45:25.246Z,99725.66
2022-10-10T08:47:53.592Z,99721.13
2022-10-10T08:50:21.505Z,99724.97
2022-10-10T08:52:49.880Z,99726.16
2022-10-10T08:55:17.959Z,99732.22
2022-10-10T08:57:48.098Z,99718.94
2022-10-10T09:00:16.634Z,99728.03
2022-10-10T09:02:53.706Z,99729.72
2022-10-10T09:05:22.265Z,99727.69
2022-10-10T09:07:50.758Z,99726.38
2022-10-10T09:10:18.621Z,99722.66
2022-10-10T09:12:46.359Z,99729.72
2022-10-10T09:15:14.087Z,99733.59
2022-10-10T09:17:41.799Z,99722.16
2022-10-10T09:20:10.301Z,99730.06
2022-10-10T09:22:38.235Z,99743.03
2022-10-10T09:25:06.092Z,99740.66
2022-10-10T09:27:33.983Z,99732.25
2022-10-10T09:30:02.277Z,99729.91
2022-10-10T09:32:30.386Z,99735.97
2022-10-10T09:34:58.090Z,99736.97
2022-10-10T09:37:45.810Z,99739.81
2022-10-10T09:40:13.701Z,99735.59
2022-10-10T09:42:42.602Z,99742.00
2022-10-10T09:45:10.382Z,99749.78
2022-10-10T09:47:38.332Z,99749.56
2022-10-10T09:50:06.433Z,99753.59
2022-10-10T09:52:34.251Z,99742.97
2022-10-10T09:55:02.614Z,99747.13
2022-10-10T09:57:30.557Z,99744.16
2022-10-10T10:00:02.244Z,99743.50
2022-10-10T10:02:32.505Z,99737.91
2022-10-10T10:05:00.636Z,99743.00
2022-10-10T10:07:28.922Z,99733.25
2022-10-10T10:09:57.249Z,99727.38
2022-10-10T10:12:25.434Z,99744.47
2022-10-10T10:14:53.364Z,99741.88
2022-10-10T10:17:21.469Z,99743.19
2022-10-10T10:19:49.757Z,99747.97
2022-10-10T10:22:19.009Z,99740.97
2022-10-10T10:24:47.902Z,99750.19
2022-10-10T10:27:15.688Z,99750.16
2022-10-10T10:29:45.178Z,99745.50
2022-10-10T10:32:13.986Z,99742.88
2022-10-10T10:34:41.847Z,99751.00
2022-10-10T10:37:14.593Z,99751.91
2022-10-10T10:39:43.074Z,99765.44
2022-10-10T10:42:10.839Z,99761.13
2022-10-10T10:44:39.467Z,99764.59
2022-10-10T10:47:07.361Z,99763.22
2022-10-10T10:49:35.244Z,99765.63
2022-10-10T10:52:03.211Z,99765.28
2022-10-10T10:54:31.590Z,99774.84
2022-10-10T10:57:06.432Z,99767.91
2022-10-10T11:00:20.898Z,99775.97
2022-10-10T11:02:43.427Z,99765.31
2022-10-10T11:05:19.929Z,99763.66
2022-10-10T11:07:55.864Z,99758.75
2022-10-10T11:10:23.708Z,99763.88
2022-10-10T11:12:51.544Z,99762.59
2022-10-10T11:15:19.776Z,99762.47
2022-10-10T11:17:47.776Z,99768.81
2022-10-10T11:20:16.102Z,99773.94
2022-10-10T11:22:46.333Z,99771.41
2022-10-10T11:25:14.451Z,99765.41
2022-10-10T11:27:42.219Z,99759.63
2022-10-10T11:30:10.059Z,99761.84
2022-10-10T11:32:38.153Z,99762.59
2022-10-10T11:35:05.865Z,99772.97
2022-10-10T11:37:33.677Z,99763.78
2022-10-10T11:40:01.618Z,99763.34
2022-10-10T11:42:29.307Z,99763.44
2022-10-10T11:44:57.397Z,99757.06
2022-10-10T11:47:25.245Z,99751.81
2022-10-10T11:49:53.084Z,99764.47
2022-10-10T11:52:33.559Z,99751.34
2022-10-10T11:55:02.174Z,99751.91
2022-10-10T11:57:29.904Z,99752.63
2022-10-10T11:59:58.000Z,99754.78
2022-10-10T12:02:27.957Z,99743.53
2022-10-10T12:04:56.068Z,99755.50
2022-10-10T12:07:24.803Z,99755.06
2022-10-10T12:09:52.755Z,99751.72
2022-10-10T12:12:20.524Z,99752.03
2022-10-10T12:14:48.345Z,99760.63
2022-10-10T12:17:16.263Z,99762.69
2022-10-10T12:19:45.314Z,99758.78
2022-10-10T12:22:18.711Z,99756.78
2022-10-10T12:24:50.142Z,99760.19
2022-10-10T12:27:18.180Z,99765.72
2022-10-10T12:29:50.210Z,99752.66
2022-10-10T12:32:18.917Z,99749.34
2022-10-10T12:34:46.685Z,99754.91
2022-10-10T12:37:14.459Z,99750.47
2022-10-10T12:39:42.413Z,99754.25
2022-10-10T12:42:10.650Z,99756.00
2022-10-10T12:44:38.475Z,99764.41
2022-10-10T12:47:06.918Z,99763.13
2022-10-10T12:49:34.723Z,99766.56
2022-10-10T12:52:02.447Z,99764.16
2022-10-10T12:54:31.055Z,99766.97
2022-10-10T12:56:58.842Z,99763.78
2022-10-10T12:59:26.768Z,99761.09
2022-10-10T13:01:54.930Z,99758.03
2022-10-10T13:04:22.803Z,99752.88
2022-10-10T13:06:51.347Z,99756.91
2022-10-10T13:09:19.151Z,99758.38
2022-10-10T13:11:46.981Z,99757.53
2022-10-10T13:14:14.793Z,99760.81
2022-10-10T13:16:42.778Z,99758.69
2022-10-10T13:19:11.456Z,99763.63
2022-10-10T13:21:39.234Z,99760.75
2022-10-10T13:24:07.603Z,99754.47
2022-10-10T13:26:35.465Z,99755.56
2022-10-10T13:29:03.305Z,99742.72
2022-10-10T13:31:31.603Z,99753.56
2022-10-10T13:33:59.500Z,99759.13
2022-10-10T13:36:27.363Z,99754.53
2022-10-10T13:38:55.327Z,99761.91
2022-10-10T13:41:23.232Z,99766.97
2022-10-10T13:43:51.542Z,99770.41
2022-10-10T13:46:19.776Z,99773.22
2022-10-10T13:48:47.687Z,99778.91
2022-10-10T13:51:15.432Z,99779.88
2022-10-10T13:53:43.172Z,99780.50
2022-10-10T13:56:11.360Z,99787.31
2022-10-10T13:58:39.034Z,99784.22
2022-10-10T14:01:07.270Z,99781.03
2022-10-10T14:03:35.253Z,99780.53
2022-10-10T14:06:03.132Z,99786.75
2022-10-10T14:08:31.770Z,99792.44
2022-10-10T14:10:59.676Z,99794.13
2022-10-10T14:13:27.714Z,99797.78
2022-10-10T14:15:56.019Z,99792.84
2022-10-10T14:18:23.834Z,99795.63
2022-10-10T14:20:52.363Z,99790.63
2022-10-10T14:23:20.089Z,99796.38
2022-10-10T14:25:48.094Z,99791.50
2022-10-10T14:28:15.965Z,99791.53
2022-10-10T14:30:44.284Z,99799.22
2022-10-10T14:33:12.778Z,99788.06
2022-10-10T14:35:40.622Z,99786.84
2022-10-10T14:38:10.791Z,99799.84
2022-10-10T14:40:38.510Z,99796.31
2022-10-10T14:43:06.370Z,99799.53
2022-10-10T14:45:34.537Z,99810.53
2022-10-10T14:48:02.397Z,99805.03
2022-10-10T14:50:30.260Z,99808.03
2022-10-10T14:52:58.595Z,99804.38
2022-10-10T14:55:26.274Z,99813.16
2022-10-10T14:57:54.486Z,99807.75
2022-10-10T15:00:22.265Z,99811.84
2022-10-10T15:02:50.093Z,99824.03
2022-10-10T15:05:17.999Z,99825.19
2022-10-10T15:07:45.873Z,99812.06
2022-10-10T15:13:02.666Z,99819.72
2022-10-10T15:15:30.465Z,99812.97
2022-10-10T15:17:58.466Z,99824.69
2022-10-10T15:20:31.477Z,99829.66
2022-10-10T15:22:59.529Z,99839.13
2022-10-10T15:25:32.370Z,99840.19
2022-10-10T15:28:01.510Z,99841.69
2022-10-10T15:30:29.890Z,99850.72
2022-10-10T15:32:58.025Z,99850.56
2022-10-10T15:35:25.881Z,99852.59
2022-10-10T15:37:53.657Z,99859.81
2022-10-10T15:40:21.494Z,99863.13
2022-10-10T15:42:49.529Z,99877.09
2022-10-10T15:45:37.008Z,99882.72
2022-10-10T15:48:05.443Z,99877.91
2022-10-10T15:50:36.232Z,99886.34
2022-10-10T15:53:06.009Z,99899.25
2022-10-10T15:55:34.036Z,99906.72
2022-10-10T15:58:04.254Z,99920.44
2022-10-10T16:00:32.002Z,99918.78
2022-10-10T16:02:59.957Z,99915.25
2022-10-10T16:05:29.498Z,99919.00
2022-10-10T16:07:57.664Z,99915.47
2022-10-10T16:10:25.622Z,99921.75
2022-10-10T16:12:53.459Z,99925.13
2022-10-10T16:15:21.626Z,99932.34
2022-10-10T16:17:49.584Z,99940.44
2022-10-10T16:20:17.715Z,99935.94
2022-10-10T16:22:45.515Z,99946.38
2022-10-10T16:25:28.606Z,99944.34
2022-10-10T16:27:56.888Z,99952.25
2022-10-10T16:30:25.083Z,99964.41
2022-10-10T16:32:52.885Z,99978.34
2022-10-10T16:35:20.738Z,99982.41
2022-10-10T16:37:48.668Z,99988.09
2022-10-10T16:40:16.643Z,99988.59
2022-10-10T16:42:44.575Z,100000.75
2022-10-10T16:45:12.367Z,100008.63
2022-10-10T16:47:40.255Z,100017.69
2022-10-10T16:50:08.140Z,100016.16
2022-10-10T16:52:38.538Z,100023.34
2022-10-10T16:55:07.228Z,100026.00
2022-10-10T16:57:35.478Z,100025.97
2022-10-10T17:00:03.481Z,100037.38
2022-10-10T17:02:31.327Z,100038.69
2022-10-10T17:04:59.531Z,100042.72
2022-10-10T17:07:27.728Z,100047.44
2022-10-10T17:09:55.600Z,100054.13
2022-10-10T17:12:23.553Z,100063.50
2022-10-10T17:14:51.422Z,100071.53
2022-10-10T17:17:19.955Z,100078.00
2022-10-10T17:19:49.908Z,100086.19
2022-10-10T17:22:17.780Z,100096.50
2022-10-10T17:24:45.548Z,100107.34
2022-10-10T17:27:13.499Z,100109.09
2022-10-10T17:29:41.641Z,100118.78
2022-10-10T17:32:09.756Z,100113.34
2022-10-10T17:34:37.674Z,100120.31
2022-10-10T17:37:05.562Z,100123.59
2022-10-10T17:39:33.409Z,100126.91
2022-10-10T17:42:04.848Z,100137.25
2022-10-10T17:44:37.835Z,100135.19
2022-10-10T17:47:08.201Z,100135.63
2022-10-10T17:49:36.015Z,100150.34
2022-10-10T17:52:04.120Z,100149.66
2022-10-10T17:54:31.883Z,100160.69
2022-10-10T17:57:00.140Z,100161.00
2022-10-10T17:59:27.998Z,100163.81
2022-10-10T18:01:55.785Z,100175.69
2022-10-10T18:04:23.891Z,100172.19
2022-10-10T18:06:51.695Z,100169.66
2022-10-10T18:09:20.200Z,100167.97
2022-10-10T18:11:48.071Z,100178.84
2022-10-10T18:14:15.965Z,100179.97
2022-10-10T18:16:44.961Z,100197.09
2022-10-10T18:19:12.924Z,100198.38
2022-10-10T18:21:41.113Z,100216.91
2022-10-10T18:24:09.131Z,100227.28
2022-10-10T18:26:37.158Z,100230.69
2022-10-10T18:29:05.009Z,100245.34
2022-10-10T18:31:33.419Z,100249.34
2022-10-10T18:34:01.613Z,100263.72
2022-10-10T18:36:29.426Z,100265.56
2022-10-10T18:38:57.376Z,100267.41
2022-10-10T18:41:25.549Z,100277.25
2022-10-10T18:43:53.577Z,100282.63
2022-10-10T18:46:22.635Z,100290.47
2022-10-10T18:48:54.099Z,100292.84
2022-10-10T18:51:22.824Z,100300.72
2022-10-10T18:53:50.946Z,100306.47
2022-10-10T18:56:21.401Z,100308.69
2022-10-10T18:58:49.676Z,100314.47
2022-10-10T19:01:21.125Z,100322.78
2022-10-10T19:03:52.661Z,100316.97
2022-10-10T19:06:20.589Z,100321.63
2022-10-10T19:08:48.465Z,100335.25
2022-10-10T19:11:16.856Z,100331.16
2022-10-10T19:13:44.585Z,100346.38
2022-10-10T19:16:12.720Z,100344.94
2022-10-10T19:18:40.662Z,100348.44
2022-10-10T19:21:08.453Z,100347.03
2022-10-10T19:23:36.866Z,100349.97
2022-10-10T19:26:04.838Z,100360.94
2022-10-10T19:28:34.411Z,100363.16
2022-10-10T19:31:02.580Z,100367.94
2022-10-10T19:33:31.371Z,100376.09
2022-10-10T19:35:59.493Z,100388.63
2022-10-10T19:38:27.216Z,100393.41
2022-10-10T19:40:55.074Z,100397.31
2022-10-10T19:43:22.780Z,100388.72
2022-10-10T19:45:51.471Z,100397.84
2022-10-10T19:48:19.756Z,100403.31
2022-10-10T19:50:47.914Z,100407.94
2022-10-10T19:53:17.609Z,100417.34
2022-10-10T19:55:46.364Z,100413.59
2022-10-10T19:58:14.133Z,100416.19
2022-10-10T20:00:42.307Z,100418.91
2022-10-10T20:03:10.456Z,100426.84
2022-10-10T20:05:38.729Z,100430.28
2022-10-10T20:08:06.661Z,100423.81
2022-10-10T20:10:34.576Z,100435.84
2022-10-10T20:13:03.096Z,100439.88
2022-10-10T20:15:30.975Z,100444.00
2022-10-10T20:18:17.596Z,100443.41
2022-10-10T20:20:45.363Z,100449.94
2022-10-10T20:23:14.542Z,100451.91
2022-10-10T20:25:42.429Z,100459.09
2022-10-10T20:28:10.398Z,100459.31
2022-10-10T20:36:57.800Z,100477.06
2022-10-10T20:39:25.632Z,100477.28
2022-10-10T20:41:53.335Z,100480.09
2022-10-10T20:44:21.315Z,100477.53
2022-10-10T20:46:49.334Z,100485.66
2022-10-10T20:49:17.601Z,100486.50
2022-10-10T20:51:48.872Z,100491.00
2022-10-10T20:54:16.714Z,100494.53
2022-10-10T20:56:46.156Z,100488.47
2022-10-10T20:59:14.383Z,100492.94
2022-10-10T21:01:42.865Z,100498.38
2022-10-10T21:04:10.789Z,100502.19
2022-10-10T21:06:38.602Z,100505.44
2022-10-10T21:09:06.448Z,100503.47
2022-10-10T21:11:34.162Z,100515.09
2022-10-10T21:14:02.385Z,100509.59
2022-10-10T21:16:30.191Z,100519.38
2022-10-10T21:18:58.855Z,100526.50
2022-10-10T21:21:27.257Z,100522.81
2022-10-10T21:23:56.567Z,100525.16
2022-10-10T21:26:25.079Z,100525.75
2022-10-10T21:28:53.097Z,100527.16
2022-10-10T21:31:20.966Z,100531.13
2022-10-10T21:33:49.474Z,100532.66
2022-10-10T21:36:17.385Z,100537.56
2022-10-10T21:38:45.815Z,100538.97
2022-10-10T21:41:13.705Z,100543.06
2022-10-10T21:43:41.949Z,100545.53
2022-10-10T21:46:09.701Z,100542.56
2022-10-10T21:48:37.388Z,100548.56
2022-10-10T21:51:05.517Z,100548.22
2022-10-10T21:53:33.679Z,100554.09
2022-10-10T21:56:01.639Z,100554.63
2022-10-10T21:58:29.660Z,100556.13
2022-10-10T22:00:57.401Z,100562.84
2022-10-10T22:03:25.432Z,100570.41
2022-10-10T22:05:53.360Z,100566.31
2022-10-10T22:08:21.059Z,100569.31
2022-10-10T22:10:48.708Z,100570.69
2022-10-10T22:13:16.391Z,100576.41
2022-10-10T22:15:44.600Z,100575.88
2022-10-10T22:18:12.279Z,100573.59
2022-10-10T22:20:39.889Z,100578.28
2022-10-10T22:23:07.558Z,100575.91
2022-10-10T22:25:35.269Z,100578.81
2022-10-10T22:28:06.375Z,100578.16
2022-10-10T22:30:34.174Z,100581.84
2022-10-10T22:33:01.802Z,100575.75
2022-10-10T22:35:29.556Z,100583.88
2022-10-10T22:37:57.212Z,100590.97
2022-10-10T22:40:26.551Z,100583.97
2022-10-10T22:42:54.161Z,100589.50
2022-10-10T22:45:21.733Z,100592.34
2022-10-10T22:47:49.340Z,100589.88
2022-10-10T22:50:16.981Z,100591.81
2022-10-10T22:52:45.278Z,100586.66
2022-10-10T22:55:17.980Z,100592.19
2022-10-10T22:57:46.284Z,100596.78
2022-10-10T23:00:13.875Z,100597.81
2022-10-10T23:02:41.445Z,100597.81
2022-10-10T23:05:09.405Z,100594.28
2022-10-10T23:07:36.991Z,100591.84
2022-10-10T23:10:04.566Z,100602.47
2022-10-10T23:12:32.550Z,100602.47
2022-10-10T23:15:00.174Z,100605.13
2022-10-10T23:17:28.325Z,100610.47
2022-10-10T23:19:55.943Z,100608.75
2022-10-10T23:22:23.539Z,100616.72
2022-10-10T23:24:51.078Z,100608.53
2022-10-10T23:27:18.691Z,100606.84
2022-10-10T23:29:46.637Z,100610.63
2022-10-10T23:32:14.210Z,100613.91
2022-10-10T23:34:42.284Z,100612.97
2022-10-10T23:37:09.883Z,100619.81
2022-10-10T23:39:37.502Z,100618.69
2022-10-10T23:42:05.608Z,100624.59
2022-10-10T23:44:33.155Z,100624.09
2022-10-10T23:47:00.759Z,100624.47
2022-10-10T23:49:28.394Z,100631.03
2022-10-10T23:51:55.953Z,100627.03
2022-10-10T23:54:23.690Z,100630.06
2022-10-10T23:56:51.629Z,100635.66
2022-10-10T23:59:19.217Z,100635.09
